X  Zatvori METAR podaci zračne luke     LYNI Nis Airport
Temperatura
20°C Temperatura
13°C Točka rosišta
64% Vlaga



Vjetar
2 M/S
5 MPS
8 KM/S
4 Čvorovi



190°
J
Trenutna situacija

Slaba Kiša Slaba Kiša
Tlak zraka 1004.92 (hPa) - 29.68 (inHg)
Vidljivost 6.2 (milje) - 10 (km)
Zračna luka
Kôd zračne luke LYNI

Lokacija: Nis Airport
Udaljenost: 63 (km)

Metar:
LYNI 281200Z 19004KT 120V290 9999 -RA SCT047 BKN067 20/13 Q1005 NOSIG

Vrijeme: 28-09-2022 14:00 CEST